Time;durP1;ratioP1;P1;durP2;ratioP2;P2;SDS_P1;SDS_P2;PMS_P1;PMS_P2;Temp;Humidity;BMP_temperature;BMP_pressure;BME280_temperature;BME280_humidity;BME280_pressure;Samples;Min_cycle;Max_cycle;Signal;HPM_P1;HPM_P2
2022/08/17 00:01:22;;;;;;;6.07;1.47;;;14.00;95.60;;;;;;4974048;28;20037;-73
2022/08/17 00:03:51;;;;;;;3.78;1.58;;;14.10;95.50;;;;;;4975784;28;20024;-72
2022/08/17 00:06:22;;;;;;;2.83;1.95;;;14.20;95.70;;;;;;4974868;28;20022;-75
2022/08/17 00:08:56;;;;;;;3.30;1.25;;;14.30;95.30;;;;;;4976495;28;20395;-73
2022/08/17 00:11:34;;;;;;;6.55;1.63;;;14.30;95.30;;;;;;4975210;28;20034;-76
2022/08/17 00:14:22;;;;;;;6.05;1.92;;;14.40;95.00;;;;;;4972243;28;20026;-73
2022/08/17 00:16:52;;;;;;;5.07;2.35;;;14.50;95.10;;;;;;4976042;28;20049;-73
2022/08/17 00:19:22;;;;;;;4.88;1.42;;;14.60;95.00;;;;;;4973200;28;20110;-73
2022/08/17 00:21:52;;;;;;;3.60;1.38;;;14.60;95.10;;;;;;4974857;28;20030;-72
2022/08/17 00:24:20;;;;;;;2.25;1.20;;;14.70;94.70;;;;;;4973628;28;20018;-73
2022/08/17 00:26:47;;;;;;;2.38;1.40;;;14.80;94.60;;;;;;4976321;28;20390;-72
2022/08/17 00:29:15;;;;;;;4.22;1.73;;;15.00;94.40;;;;;;4974981;28;20019;-72
2022/08/17 00:31:42;;;;;;;2.92;1.17;;;15.10;94.10;;;;;;4976622;28;20030;-74
2022/08/17 00:34:09;;;;;;;3.53;1.58;;;15.20;93.90;;;;;;4975164;28;20022;-72
2022/08/17 00:36:37;;;;;;;1.35;1.20;;;15.40;93.80;;;;;;4976555;28;20086;-73
2022/08/17 00:39:04;;;;;;;1.80;1.25;;;15.50;93.50;;;;;;4974423;28;20022;-73
2022/08/17 00:41:34;;;;;;;2.15;1.05;;;15.50;93.40;;;;;;4976134;28;20022;-73
2022/08/17 00:44:04;;;;;;;2.00;1.10;;;15.50;93.20;;;;;;4975302;28;20479;-73
2022/08/17 00:46:39;;;;;;;2.15;1.00;;;15.70;93.30;;;;;;4976147;28;20094;-74
2022/08/17 00:49:08;;;;;;;3.08;1.00;;;15.70;93.00;;;;;;4974845;28;20085;-73
2022/08/17 00:52:05;;;;;;;2.05;1.00;;;15.80;92.90;;;;;;4974583;28;20129;-74
2022/08/17 00:54:40;;;;;;;2.50;1.10;;;15.80;92.90;;;;;;4976632;28;20028;-76
2022/08/17 00:57:12;;;;;;;2.47;1.00;;;15.90;92.50;;;;;;4974329;28;20042;-74
2022/08/17 00:59:45;;;;;;;1.63;1.02;;;16.00;92.40;;;;;;4975951;28;20025;-72
2022/08/17 01:02:15;;;;;;;1.90;0.90;;;16.20;92.40;;;;;;4973040;28;20177;-76
2022/08/17 01:04:45;;;;;;;2.35;0.98;;;16.30;92.10;;;;;;4977650;28;20014;-75
2022/08/17 01:07:13;;;;;;;1.67;1.15;;;16.30;92.10;;;;;;4976998;28;20118;-76
2022/08/17 01:09:43;;;;;;;2.38;1.00;;;16.50;91.70;;;;;;4978354;28;20019;-72
2022/08/17 01:12:12;;;;;;;3.42;1.42;;;16.50;91.60;;;;;;4976643;28;20035;-76
2022/08/17 01:14:40;;;;;;;2.38;0.95;;;16.70;91.30;;;;;;4978552;28;20019;-74
2022/08/17 01:17:09;;;;;;;1.95;1.05;;;16.70;91.30;;;;;;4976910;28;20076;-75
2022/08/17 01:19:39;;;;;;;1.83;1.33;;;16.80;91.30;;;;;;4979557;28;20041;-74
2022/08/17 01:22:13;;;;;;;1.67;1.05;;;16.90;91.30;;;;;;4980487;28;20026;-73
2022/08/17 01:24:43;;;;;;;1.55;1.00;;;17.00;91.30;;;;;;4978006;28;20022;-75
2022/08/17 01:27:12;;;;;;;1.83;1.20;;;17.10;90.70;;;;;;4980024;28;20037;-74
2022/08/17 01:29:44;;;;;;;2.17;0.95;;;17.20;90.60;;;;;;4978234;28;20103;-75
2022/08/17 01:32:12;;;;;;;1.20;0.90;;;17.40;90.30;;;;;;4994803;28;20331;-74
2022/08/17 01:34:40;;;;;;;1.40;1.17;;;17.40;90.10;;;;;;4978018;28;20022;-73
2022/08/17 01:37:07;;;;;;;1.75;1.20;;;17.50;90.10;;;;;;4980118;28;20109;-72
2022/08/17 01:39:46;;;;;;;2.05;0.82;;;17.60;90.00;;;;;;4977739;28;20022;-73
2022/08/17 01:42:26;;;;;;;1.05;0.90;;;17.70;90.00;;;;;;4979241;28;20360;-73
2022/08/17 01:44:58;;;;;;;0.98;0.90;;;17.90;89.90;;;;;;4978902;28;20022;-75
2022/08/17 01:47:25;;;;;;;1.63;1.07;;;18.00;89.50;;;;;;4979062;28;20030;-70
2022/08/17 01:49:53;;;;;;;1.17;0.77;;;18.00;88.70;;;;;;4979002;28;20026;-73
2022/08/17 01:52:22;;;;;;;1.33;0.98;;;18.00;89.50;;;;;;4979355;28;20030;-75
2022/08/17 01:54:50;;;;;;;5.18;1.20;;;18.30;89.90;;;;;;4978046;28;20054;-72
2022/08/17 01:57:18;;;;;;;2.17;1.20;;;18.60;88.40;;;;;;4978767;28;20093;-73
2022/08/17 01:59:46;;;;;;;5.47;1.42;;;18.70;87.80;;;;;;4976944;28;20117;-72
2022/08/17 02:02:13;;;;;;;6.57;1.40;;;18.90;87.50;;;;;;4979940;28;20030;-68
2022/08/17 02:04:40;;;;;;;5.45;1.50;;;19.10;86.60;;;;;;4977862;28;20110;-74
2022/08/17 02:07:08;;;;;;;3.63;1.20;;;19.50;86.30;;;;;;4974687;28;20074;-72
2022/08/17 02:09:35;;;;;;;4.53;1.30;;;19.50;85.30;;;;;;4957314;28;20041;-71
2022/08/17 02:12:03;;;;;;;6.00;1.30;;;19.70;84.90;;;;;;4959647;28;20031;-70
2022/08/17 02:14:30;;;;;;;4.43;1.52;;;19.80;84.40;;;;;;4957879;28;20390;-74
2022/08/17 02:16:57;;;;;;;11.50;7.95;;;19.90;84.00;;;;;;4966596;28;20092;-73
2022/08/17 02:19:25;;;;;;;5.80;1.73;;;19.90;83.40;;;;;;4979067;28;20189;-72
2022/08/17 02:21:54;;;;;;;3.90;1.50;;;20.00;83.10;;;;;;4976781;28;20096;-72
2022/08/17 02:24:28;;;;;;;3.40;1.50;;;20.00;82.80;;;;;;4978734;28;20022;-71
2022/08/17 02:26:55;;;;;;;3.10;1.00;;;20.00;82.80;;;;;;4976724;28;20048;-70
2022/08/17 02:29:23;;;;;;;3.83;1.60;;;20.10;83.60;;;;;;4978814;28;20028;-69
2022/08/17 02:31:50;;;;;;;3.75;1.02;;;20.20;84.10;;;;;;4977612;28;20380;-72
2022/08/17 02:34:17;;;;;;;6.35;1.80;;;20.40;82.90;;;;;;4979104;28;20037;-72
2022/08/17 02:36:45;;;;;;;2.92;0.82;;;20.60;82.30;;;;;;4979637;28;20125;-73
2022/08/17 02:39:12;;;;;;;3.00;1.17;;;20.90;82.20;;;;;;4977250;28;20029;-73
2022/08/17 02:41:40;;;;;;;2.55;1.02;;;21.00;80.20;;;;;;4978096;28;20096;-73
2022/08/17 02:44:08;;;;;;;5.35;1.35;;;21.10;79.90;;;;;;4976578;28;20475;-71
2022/08/17 02:46:35;;;;;;;4.80;1.23;;;21.40;79.40;;;;;;4978790;28;20467;-73
2022/08/17 02:49:04;;;;;;;3.42;1.10;;;21.70;78.90;;;;;;4976470;28;20033;-74
2022/08/17 02:51:34;;;;;;;2.80;1.00;;;22.10;78.10;;;;;;4978271;28;20054;-72
2022/08/17 02:54:01;;;;;;;3.80;1.10;;;22.50;77.10;;;;;;4976818;28;20057;-71
2022/08/17 02:56:28;;;;;;;2.22;0.98;;;23.00;76.60;;;;;;4978060;28;20026;-71
2022/08/17 02:58:56;;;;;;;4.68;1.17;;;23.50;74.40;;;;;;4976279;28;20666;-72
2022/08/17 03:01:23;;;;;;;5.47;1.08;;;23.80;75.20;;;;;;4976904;28;20033;-73
2022/08/17 03:03:54;;;;;;;4.00;1.10;;;24.10;72.60;;;;;;4979035;28;20034;-73
2022/08/17 03:06:21;;;;;;;4.95;1.20;;;24.40;72.70;;;;;;4976165;28;20022;-73
2022/08/17 03:08:48;;;;;;;3.60;1.20;;;24.60;70.70;;;;;;4978469;28;20023;-74
2022/08/17 03:11:16;;;;;;;4.10;0.80;;;24.90;70.30;;;;;;4976153;28;20045;-70
2022/08/17 03:13:44;;;;;;;5.38;1.30;;;25.00;69.50;;;;;;4978363;28;20062;-71
2022/08/17 03:16:11;;;;;;;2.53;1.13;;;25.30;71.00;;;;;;4973812;28;20210;-74
2022/08/17 03:18:38;;;;;;;3.63;1.10;;;25.60;68.40;;;;;;4974497;28;20419;-73
2022/08/17 03:21:07;;;;;;;3.10;1.20;;;25.70;67.80;;;;;;4975679;28;20022;-71
2022/08/17 03:23:40;;;;;;;3.22;1.00;;;25.50;68.20;;;;;;4973383;28;20026;-71
2022/08/17 03:26:09;;;;;;;4.15;1.00;;;25.80;68.00;;;;;;4974656;28;20054;-73
2022/08/17 03:28:38;;;;;;;5.63;1.35;;;25.90;67.30;;;;;;4974715;28;20109;-74
2022/08/17 03:31:05;;;;;;;4.80;1.30;;;25.90;67.30;;;;;;4977178;28;20030;-71
2022/08/17 03:33:33;;;;;;;5.00;1.33;;;26.00;67.30;;;;;;4975883;28;20916;-72
2022/08/17 03:36:00;;;;;;;5.30;1.10;;;26.10;66.80;;;;;;4977362;28;20816;-73
2022/08/17 03:38:28;;;;;;;2.65;1.00;;;26.10;66.90;;;;;;4977323;28;20478;-72
2022/08/17 03:40:55;;;;;;;2.70;0.93;;;26.30;66.10;;;;;;4977080;28;20029;-71
2022/08/17 03:43:23;;;;;;;5.55;1.10;;;26.40;65.80;;;;;;4977573;28;20034;-73
2022/08/17 03:57:09;;;;;;;4.03;0.80;;;26.80;63.80;;;;;;4976021;28;20709;-70
2022/08/17 03:59:37;;;;;;;4.18;1.58;;;26.90;63.60;;;;;;4975989;28;20029;-69
2022/08/17 04:02:12;;;;;;;4.43;1.60;;;26.90;64.20;;;;;;4976437;28;20026;-70
2022/08/17 04:04:39;;;;;;;3.28;0.85;;;27.10;64.30;;;;;;4976135;28;20097;-70
2022/08/17 04:07:07;;;;;;;3.65;1.27;;;27.10;63.90;;;;;;4991032;28;20084;-72
2022/08/17 04:09:35;;;;;;;7.35;1.30;;;27.30;63.30;;;;;;4977089;28;20029;-71
2022/08/17 04:12:03;;;;;;;5.45;1.80;;;27.30;63.20;;;;;;4975968;28;20431;-72
2022/08/17 04:14:37;;;;;;;4.15;1.13;;;27.10;62.20;;;;;;4976385;28;20031;-73
2022/08/17 04:17:05;;;;;;;5.78;1.00;;;27.10;62.20;;;;;;4976856;28;20029;-73
2022/08/17 04:19:32;;;;;;;4.75;0.90;;;27.10;62.20;;;;;;4977382;28;20057;-73
2022/08/17 04:22:00;;;;;;;2.83;1.50;;;26.90;62.30;;;;;;4975373;28;20019;-71
2022/08/17 04:24:27;;;;;;;3.50;0.70;;;26.80;63.10;;;;;;4976495;28;20030;-72
2022/08/17 04:26:54;;;;;;;3.85;1.00;;;26.80;63.00;;;;;;4975332;28;20655;-73
2022/08/17 04:29:24;;;;;;;2.30;0.75;;;26.80;62.30;;;;;;4976101;28;20031;-73
2022/08/17 04:31:52;;;;;;;4.15;0.90;;;26.70;63.00;;;;;;4975522;28;20117;-73
2022/08/17 04:34:20;;;;;;;3.95;1.25;;;26.70;62.60;;;;;;4976214;28;20019;-71
2022/08/17 04:36:48;;;;;;;2.65;1.00;;;26.70;62.00;;;;;;4975292;28;20030;-73
2022/08/17 04:39:18;;;;;;;3.63;1.20;;;26.60;62.60;;;;;;4975357;28;20418;-74
2022/08/17 04:44:30;;;;;;;3.38;0.90;;;26.90;63.00;;;;;;4975774;28;20030;-73
2022/08/17 04:46:58;;;;;;;5.22;1.50;;;27.00;63.30;;;;;;4974097;28;20113;-69
2022/08/17 04:49:25;;;;;;;3.80;0.90;;;27.00;62.70;;;;;;4976337;28;20041;-72
2022/08/17 04:51:52;;;;;;;3.38;0.77;;;26.80;62.80;;;;;;4976669;28;20093;-74
2022/08/17 04:54:21;;;;;;;2.83;0.98;;;26.70;62.70;;;;;;4976416;28;20985;-72
2022/08/17 04:56:48;;;;;;;3.47;1.52;;;26.50;63.20;;;;;;4976005;28;20022;-74
2022/08/17 04:59:21;;;;;;;4.88;0.90;;;26.70;63.20;;;;;;4974911;28;20037;-73
2022/08/17 05:01:50;;;;;;;2.65;1.25;;;26.80;62.70;;;;;;4976160;28;20030;-74
2022/08/17 05:04:21;;;;;;;4.35;1.25;;;26.90;63.20;;;;;;4974446;28;20113;-73
2022/08/17 05:06:48;;;;;;;2.28;1.02;;;27.00;63.00;;;;;;4975180;28;20802;-73
2022/08/17 05:09:17;;;;;;;2.17;0.63;;;26.90;62.20;;;;;;4973933;28;20030;-71
2022/08/17 05:11:45;;;;;;;3.38;0.90;;;27.10;62.60;;;;;;4974132;28;20194;-72
2022/08/17 05:14:13;;;;;;;3.70;0.77;;;27.00;62.70;;;;;;4974886;28;20026;-73
2022/08/17 05:16:41;;;;;;;4.28;0.80;;;26.90;62.70;;;;;;4975820;28;20370;-71
2022/08/17 05:19:08;;;;;;;3.60;0.90;;;26.90;62.30;;;;;;4975024;28;20042;-72
2022/08/17 05:21:35;;;;;;;5.68;0.70;;;27.00;63.50;;;;;;4974426;28;20026;-75
2022/08/17 05:24:13;;;;;;;14.00;1.40;;;27.10;62.40;;;;;;4975208;28;20029;-74
2022/08/17 05:26:41;;;;;;;3.47;1.20;;;27.10;64.00;;;;;;4974282;28;20085;-73
2022/08/17 05:29:08;;;;;;;4.60;1.05;;;27.10;63.10;;;;;;4974737;28;20482;-71
2022/08/17 05:31:35;;;;;;;3.55;1.00;;;27.20;63.30;;;;;;4975231;28;20030;-70
2022/08/17 05:34:03;;;;;;;3.78;0.90;;;27.40;62.90;;;;;;4975614;28;20030;-72
2022/08/17 05:36:30;;;;;;;2.58;0.90;;;27.50;62.70;;;;;;4970830;28;20042;-72
2022/08/17 05:38:57;;;;;;;4.93;1.33;;;27.50;63.10;;;;;;4971608;28;20034;-72
2022/08/17 05:41:25;;;;;;;3.38;0.70;;;27.70;62.40;;;;;;4955033;28;20078;-72
2022/08/17 05:43:52;;;;;;;3.58;0.88;;;27.60;62.20;;;;;;4956342;28;20173;-76
2022/08/17 05:46:24;;;;;;;4.50;1.25;;;27.40;63.90;;;;;;4957785;28;20030;-73
2022/08/17 05:48:58;;;;;;;4.57;1.17;;;27.40;63.20;;;;;;4975396;28;20022;-72
2022/08/17 05:51:49;;;;;;;3.35;0.80;;;27.30;63.80;;;;;;4976965;28;20042;-74
2022/08/17 05:54:47;;;;;;;4.27;0.80;;;27.20;63.90;;;;;;4979215;28;20030;-72
2022/08/17 05:57:39;;;;;;;3.97;1.75;;;27.50;63.90;;;;;;4977992;28;20050;-73
2022/08/17 06:00:19;;;;;;;3.20;0.80;;;27.20;63.90;;;;;;4979310;28;20407;-74
2022/08/17 06:02:53;;;;;;;3.22;1.00;;;27.10;64.50;;;;;;4977176;28;20026;-73
2022/08/17 06:05:41;;;;;;;2.95;1.20;;;27.20;63.60;;;;;;4977847;28;20023;-74
2022/08/17 06:08:41;;;;;;;3.50;0.88;;;27.10;63.80;;;;;;4978695;28;20120;-76
2022/08/17 06:11:26;;;;;;;4.80;1.77;;;26.80;64.00;;;;;;4977647;28;20026;-74
2022/08/17 06:14:01;;;;;;;5.05;1.25;;;26.70;64.50;;;;;;4978525;28;20026;-74
2022/08/17 06:16:37;;;;;;;4.70;1.20;;;26.50;64.40;;;;;;4972708;28;20025;-75
2022/08/17 06:19:17;;;;;;;3.30;1.15;;;26.40;64.70;;;;;;4979494;28;20026;-73
2022/08/17 06:21:48;;;;;;;5.55;0.80;;;26.30;65.00;;;;;;4977618;28;20029;-74
2022/08/17 06:24:21;;;;;;;2.20;0.90;;;25.90;65.00;;;;;;4976592;28;20109;-74
2022/08/17 06:26:49;;;;;;;6.03;1.05;;;25.50;65.80;;;;;;4977734;28;20027;-74
2022/08/17 06:29:36;;;;;;;2.67;0.98;;;24.90;67.00;;;;;;4975710;28;20026;-72
2022/08/17 06:32:08;;;;;;;2.22;0.82;;;24.50;68.70;;;;;;4977939;28;20038;-75
2022/08/17 06:34:38;;;;;;;2.97;0.85;;;24.30;68.60;;;;;;4973094;28;20030;-75
2022/08/17 06:37:34;;;;;;;3.28;1.02;;;24.10;69.00;;;;;;4967071;28;20157;-75
2022/08/17 06:40:30;;;;;;;5.57;1.45;;;23.90;69.80;;;;;;4978423;28;20464;-76
2022/08/17 06:43:31;;;;;;;4.30;1.20;;;23.70;70.20;;;;;;4979988;28;20117;-74
2022/08/17 06:46:10;;;;;;;4.80;1.40;;;23.40;70.70;;;;;;4977870;28;20022;-77
2022/08/17 06:49:01;;;;;;;4.35;1.25;;;23.10;71.50;;;;;;4989290;28;20027;-74
2022/08/17 06:51:53;;;;;;;3.25;1.00;;;22.60;73.10;;;;;;4957603;28;20045;-74
2022/08/17 06:54:38;;;;;;;3.10;0.80;;;22.20;74.30;;;;;;4959918;28;20029;-73
2022/08/17 06:57:32;;;;;;;5.97;1.08;;;21.60;74.90;;;;;;4977586;28;20419;-73
2022/08/17 07:00:15;;;;;;;5.03;1.00;;;21.10;76.50;;;;;;4979926;28;20031;-73
2022/08/17 07:03:05;;;;;;;4.35;1.20;;;20.50;78.00;;;;;;4976349;28;20022;-73
2022/08/17 07:05:43;;;;;;;2.75;0.85;;;20.00;79.60;;;;;;4972402;28;20126;-73
2022/08/17 07:08:32;;;;;;;5.20;1.42;;;19.50;80.70;;;;;;4975755;28;20109;-73
2022/08/17 07:11:13;;;;;;;6.53;1.88;;;19.30;81.90;;;;;;4977442;28;20101;-72
2022/08/17 07:13:57;;;;;;;5.72;2.03;;;19.10;83.10;;;;;;4976758;28;20109;-74
2022/08/17 07:16:39;;;;;;;4.35;1.80;;;18.80;83.40;;;;;;4974180;28;20118;-73
2022/08/17 07:19:08;;;;;;;6.57;1.92;;;18.70;84.30;;;;;;4977705;28;20359;-74
2022/08/17 07:21:53;;;;;;;5.82;1.80;;;18.50;84.90;;;;;;4975740;28;20101;-73
2022/08/17 07:24:58;;;;;;;6.35;1.65;;;18.30;85.80;;;;;;4976570;28;20084;-77
2022/08/17 07:27:49;;;;;;;2.90;1.33;;;18.10;86.70;;;;;;4975469;28;20117;-72
2022/08/17 07:30:25;;;;;;;6.03;1.80;;;17.90;87.70;;;;;;4977468;28;20117;-71
2022/08/17 07:32:56;;;;;;;5.30;1.67;;;17.80;88.30;;;;;;4976807;28;20038;-71
2022/08/17 07:35:30;;;;;;;9.10;5.22;;;17.60;89.20;;;;;;4976784;28;20031;-70
2022/08/17 07:38:14;;;;;;;5.60;1.60;;;17.50;90.00;;;;;;4976271;28;20117;-71
2022/08/17 07:41:09;;;;;;;8.07;2.33;;;17.40;90.50;;;;;;4975082;28;20171;-71
2022/08/17 07:43:39;;;;;;;6.75;1.92;;;17.30;90.70;;;;;;4976131;28;20038;-71
2022/08/17 07:49:07;;;;;;;9.05;2.20;;;17.00;91.50;;;;;;4976105;28;20136;-71
2022/08/17 07:51:57;;;;;;;7.88;3.08;;;17.00;91.80;;;;;;4976004;28;20030;-72
2022/08/17 07:54:30;;;;;;;6.65;2.17;;;16.90;92.20;;;;;;4976310;28;20018;-73
2022/08/17 07:57:12;;;;;;;7.47;2.70;;;16.90;92.40;;;;;;4976398;28;20475;-72
2022/08/17 07:59:59;;;;;;;5.95;1.98;;;16.80;92.80;;;;;;4976329;28;20038;-72
2022/08/17 08:02:39;;;;;;;8.35;3.20;;;16.80;92.80;;;;;;4976471;28;20026;-71
2022/08/17 08:05:19;;;;;;;9.55;3.28;;;16.70;93.00;;;;;;4968728;28;20038;-72
2022/08/17 08:07:57;;;;;;;8.68;4.13;;;16.60;93.50;;;;;;4970877;28;20029;-71
2022/08/17 08:10:35;;;;;;;7.65;3.03;;;16.60;93.70;;;;;;4965064;28;20038;-74
2022/08/17 08:13:09;;;;;;;5.78;2.50;;;16.50;94.00;;;;;;4972215;28;20117;-73
2022/08/17 08:15:49;;;;;;;7.20;2.15;;;16.40;94.20;;;;;;4973332;28;20022;-73
2022/08/17 08:18:44;;;;;;;8.07;2.80;;;16.40;94.20;;;;;;4971873;28;20034;-73
2022/08/17 08:21:41;;;;;;;7.18;2.85;;;16.40;94.40;;;;;;4975443;28;20109;-72
2022/08/17 08:24:29;;;;;;;7.47;2.45;;;16.30;94.60;;;;;;4975618;28;20038;-71
2022/08/17 08:27:14;;;;;;;4.43;1.90;;;16.30;94.90;;;;;;4972773;28;20069;-71
2022/08/17 08:30:02;;;;;;;6.38;3.40;;;16.30;95.20;;;;;;4972203;28;20030;-72
2022/08/17 08:32:56;;;;;;;6.63;3.25;;;16.20;95.30;;;;;;4972516;28;20117;-73
2022/08/17 08:35:37;;;;;;;11.68;5.78;;;16.20;95.60;;;;;;4972936;28;20440;-70
2022/08/17 08:38:14;;;;;;;9.23;4.55;;;16.10;95.70;;;;;;4975582;28;20024;-70
2022/08/17 08:40:55;;;;;;;13.55;4.07;;;16.00;95.90;;;;;;4973286;28;20046;-75
2022/08/17 08:43:31;;;;;;;8.10;3.35;;;15.90;96.10;;;;;;4975708;28;20026;-75
2022/08/17 08:46:02;;;;;;;8.80;4.03;;;15.80;96.40;;;;;;4974308;28;20027;-73
2022/08/17 08:48:51;;;;;;;12.38;4.20;;;15.80;96.70;;;;;;4975539;28;20479;-72
2022/08/17 08:51:46;;;;;;;8.98;4.22;;;15.70;96.90;;;;;;4976729;28;20031;-76
2022/08/17 08:54:37;;;;;;;8.07;4.03;;;15.70;97.30;;;;;;4974046;28;20096;-72
2022/08/17 08:57:20;;;;;;;8.18;3.70;;;15.60;97.50;;;;;;4964573;28;20054;-72
2022/08/17 09:00:19;;;;;;;8.63;4.90;;;15.60;97.70;;;;;;4974988;28;20030;-70
2022/08/17 09:03:24;;;;;;;11.95;4.90;;;15.50;97.90;;;;;;4974405;28;20033;-74
2022/08/17 09:06:29;;;;;;;10.85;4.85;;;15.50;98.20;;;;;;4975165;28;20029;-72
2022/08/17 09:09:15;;;;;;;12.65;5.30;;;15.40;98.40;;;;;;4965637;28;20026;-72
2022/08/17 09:12:02;;;;;;;10.65;5.43;;;15.30;98.70;;;;;;4974506;28;20034;-71
2022/08/17 09:14:38;;;;;;;14.25;5.18;;;15.30;98.90;;;;;;4975309;28;20502;-74
2022/08/17 09:17:34;;;;;;;10.15;5.13;;;15.20;99.10;;;;;;4975553;28;20026;-75
2022/08/17 09:20:13;;;;;;;9.13;5.75;;;15.20;99.40;;;;;;4974273;28;20092;-72
2022/08/17 09:22:49;;;;;;;8.75;5.65;;;15.10;99.70;;;;;;4974217;28;20426;-71
2022/08/17 09:25:25;;;;;;;11.15;6.55;;;15.10;99.90;;;;;;4977401;28;20475;-72
2022/08/17 09:28:15;;;;;;;10.02;5.80;;;15.00;99.90;;;;;;4978394;28;20034;-71
2022/08/17 09:30:52;;;;;;;15.70;7.28;;;14.90;99.90;;;;;;4958918;28;20415;-72
2022/08/17 09:33:25;;;;;;;10.65;6.05;;;14.90;99.90;;;;;;4978664;28;20038;-70
2022/08/17 09:36:06;;;;;;;;;;;14.80;99.90;;;;;;4979454;28;20065;-71
2022/08/17 09:39:05;;;;;;;15.18;8.95;;;14.80;99.90;;;;;;4963924;28;19917;-70
2022/08/17 09:41:35;;;;;;;16.55;12.43;;;14.70;99.90;;;;;;4978822;28;20026;-71
2022/08/17 09:44:12;;;;;;;15.38;10.60;;;14.70;99.90;;;;;;4976606;28;20177;-70
2022/08/17 09:46:54;;;;;;;16.85;10.27;;;14.70;99.90;;;;;;4978403;28;20927;-70
2022/08/17 09:49:41;;;;;;;12.52;8.90;;;14.60;99.90;;;;;;4979193;28;20030;-70
2022/08/17 09:52:17;;;;;;;17.15;11.13;;;14.60;99.90;;;;;;4978241;28;20061;-69
2022/08/17 09:54:46;;;;;;;20.38;11.68;;;14.50;99.90;;;;;;4976635;28;20023;-71
2022/08/17 09:57:17;;;;;;;19.02;11.90;;;14.50;99.90;;;;;;4977881;28;20125;-69
2022/08/17 09:59:55;;;;;;;21.08;11.93;;;14.40;99.90;;;;;;4978474;28;20027;-69
2022/08/17 10:02:39;;;;;;;24.02;11.15;;;14.40;99.90;;;;;;4979337;28;20491;-68
2022/08/17 10:05:12;;;;;;;16.83;9.93;;;14.40;99.90;;;;;;4977270;28;20822;-69
2022/08/17 10:08:11;;;;;;;18.65;8.02;;;14.30;99.90;;;;;;4977949;28;20022;-70
2022/08/17 10:10:44;;;;;;;17.65;7.82;;;14.30;99.90;;;;;;4979187;28;20022;-71
2022/08/17 10:13:32;;;;;;;15.07;7.32;;;14.30;99.90;;;;;;4977279;28;20053;-71
2022/08/17 10:16:25;;;;;;;15.95;6.70;;;14.30;99.90;;;;;;4977618;28;20033;-72
2022/08/17 10:19:00;;;;;;;14.82;7.05;;;14.20;99.90;;;;;;4958182;28;20057;-73
2022/08/17 10:27:54;;;;;;;17.73;9.70;;;14.10;99.90;;;;;;4977914;28;20049;-70
2022/08/17 10:30:28;;;;;;;16.05;7.28;;;14.10;99.90;;;;;;4977434;28;20035;-71
2022/08/17 10:33:01;;;;;;;9.80;5.90;;;14.00;99.90;;;;;;4976937;28;20065;-70
2022/08/17 10:36:04;;;;;;;12.27;5.63;;;14.00;99.90;;;;;;4977579;28;20041;-71
2022/08/17 10:38:40;;;;;;;10.95;5.68;;;14.00;99.90;;;;;;4976575;28;20022;-71
2022/08/17 10:41:24;;;;;;;11.85;5.50;;;13.90;99.90;;;;;;4976981;28;20387;-70
2022/08/17 10:44:00;;;;;;;12.93;7.45;;;13.90;99.90;;;;;;4978212;28;20056;-71
2022/08/17 10:46:50;;;;;;;14.57;7.30;;;13.80;99.90;;;;;;4976353;28;20037;-72
2022/08/17 10:49:19;;;;;;;15.57;9.40;;;13.80;99.90;;;;;;4978765;28;20030;-69
2022/08/17 10:52:19;;;;;;;12.05;7.35;;;13.80;99.90;;;;;;4978603;28;20038;-70
2022/08/17 10:54:51;;;;;;;14.60;7.57;;;13.70;99.90;;;;;;4977299;28;20545;-69
2022/08/17 10:57:27;;;;;;;11.90;7.45;;;13.70;99.90;;;;;;4977376;28;20331;-70
2022/08/17 11:00:00;;;;;;;12.02;7.15;;;13.60;99.90;;;;;;4978681;28;20058;-70
2022/08/17 11:02:50;;;;;;;14.70;6.47;;;13.60;99.90;;;;;;4978387;28;20552;-70
2022/08/17 11:05:49;;;;;;;16.48;7.85;;;13.60;99.90;;;;;;4975632;28;20724;-69
2022/08/17 11:08:34;;;;;;;11.88;8.18;;;13.50;99.90;;;;;;4976618;28;20581;-70
2022/08/17 11:11:51;;;;;;;16.23;7.35;;;13.50;99.90;;;;;;4973344;28;20086;-70
2022/08/17 11:14:24;;;;;;;12.63;6.75;;;13.50;99.90;;;;;;4984447;28;20871;-69
2022/08/17 11:17:13;;;;;;;12.77;7.50;;;13.40;99.90;;;;;;4976881;28;20022;-69
2022/08/17 11:20:06;;;;;;;12.27;7.03;;;13.30;99.90;;;;;;4978092;28;20355;-70
2022/08/17 11:22:36;;;;;;;;;;;13.30;99.90;;;;;;4992012;28;20451;-69
2022/08/17 11:25:18;;;;;;;15.25;7.53;;;13.30;99.90;;;;;;4973263;28;19947;-70
2022/08/17 11:27:52;;;;;;;16.87;7.60;;;13.20;99.90;;;;;;4973677;28;20092;-72
2022/08/17 11:30:47;;;;;;;13.75;7.85;;;13.30;99.90;;;;;;4974606;28;20349;-72
2022/08/17 11:33:35;;;;;;;13.52;7.15;;;13.20;99.90;;;;;;4973866;28;20038;-73
2022/08/17 11:36:24;;;;;;;16.83;8.25;;;13.20;99.90;;;;;;4971103;28;20388;-72
2022/08/17 11:39:24;;;;;;;17.98;7.53;;;13.10;99.90;;;;;;4972402;28;20187;-71
2022/08/17 11:41:57;;;;;;;15.95;8.57;;;13.00;99.90;;;;;;4973892;28;20024;-73
2022/08/17 11:45:03;;;;;;;16.98;8.63;;;13.00;99.90;;;;;;4973581;28;20693;-70
2022/08/17 11:51:33;;;;;;;11.73;7.60;;;12.90;99.90;;;;;;4976186;28;20435;-69
2022/08/17 11:54:14;;;;;;;14.32;7.85;;;12.90;99.90;;;;;;4991511;28;20037;-69
2022/08/17 11:56:50;;;;;;;17.60;8.65;;;12.80;99.90;;;;;;4993907;28;20384;-70
2022/08/17 11:59:26;;;;;;;16.73;8.27;;;12.80;99.90;;;;;;4978740;28;20054;-71
2022/08/17 12:01:55;;;;;;;16.80;9.23;;;12.80;99.90;;;;;;4974750;28;20031;-71
2022/08/17 12:04:29;;;;;;;16.50;7.97;;;12.80;99.90;;;;;;4969971;28;20545;-72
2022/08/17 12:07:23;;;;;;;18.83;9.65;;;12.70;99.90;;;;;;4974376;28;20475;-70
2022/08/17 12:09:52;;;;;;;16.80;8.25;;;12.70;99.90;;;;;;4977307;28;20114;-69
2022/08/17 12:12:32;;;;;;;17.00;9.05;;;12.70;99.90;;;;;;4973396;28;20499;-69
2022/08/17 12:15:00;;;;;;;16.38;8.70;;;12.70;99.90;;;;;;4976900;28;20014;-70
2022/08/17 12:17:30;;;;;;;20.25;9.90;;;12.60;99.90;;;;;;4973083;28;20046;-70
2022/08/17 12:20:32;;;;;;;17.33;9.18;;;12.60;99.90;;;;;;4976977;28;20081;-73
2022/08/17 12:23:15;;;;;;;15.75;8.50;;;12.50;99.90;;;;;;4975735;28;20027;-71
2022/08/17 12:26:02;;;;;;;16.17;8.75;;;12.50;99.90;;;;;;4976894;28;20098;-70
2022/08/17 12:28:35;;;;;;;17.40;9.18;;;12.50;99.90;;;;;;4970808;28;20061;-70
2022/08/17 12:31:14;;;;;;;13.95;8.50;;;12.50;99.90;;;;;;4970663;28;20030;-70
2022/08/17 12:33:48;;;;;;;15.63;9.38;;;12.40;99.90;;;;;;4977132;28;20368;-74
2022/08/17 12:36:23;;;;;;;16.40;7.15;;;12.40;99.90;;;;;;4974254;28;20029;-69
2022/08/17 12:39:03;;;;;;;16.50;9.13;;;12.40;99.90;;;;;;4976698;28;20026;-70
2022/08/17 12:41:42;;;;;;;15.45;9.00;;;12.30;99.90;;;;;;4970549;28;20034;-71
2022/08/17 12:44:22;;;;;;;16.75;10.10;;;12.30;99.90;;;;;;4974582;28;20105;-72
2022/08/17 12:47:05;;;;;;;17.83;10.40;;;12.30;99.90;;;;;;4972917;28;20018;-70
2022/08/17 12:49:38;;;;;;;23.13;12.35;;;12.30;99.90;;;;;;4971018;28;20487;-70
2022/08/17 12:52:08;;;;;;;;;;;12.20;99.90;;;;;;4974696;28;20821;-70
2022/08/17 12:54:38;;;;;;;23.88;13.55;;;12.30;99.90;;;;;;4971442;28;20015;-70
2022/08/17 12:57:11;;;;;;;22.98;12.95;;;12.20;99.90;;;;;;4974503;28;20396;-71
2022/08/17 12:59:45;;;;;;;20.02;11.65;;;12.20;99.90;;;;;;4975352;28;20545;-69
2022/08/17 13:02:38;;;;;;;17.98;10.10;;;12.20;99.90;;;;;;4981805;28;20030;-71
2022/08/17 13:05:16;;;;;;;15.00;9.20;;;12.10;99.90;;;;;;4978779;28;20026;-69
2022/08/17 13:07:45;;;;;;;17.38;9.35;;;12.10;99.90;;;;;;4975534;28;20034;-69
2022/08/17 13:10:30;;;;;;;15.80;9.13;;;12.10;99.90;;;;;;4982194;28;20022;-69
2022/08/17 13:13:04;;;;;;;15.60;8.70;;;12.00;99.90;;;;;;4977821;28;20030;-72
2022/08/17 13:15:35;;;;;;;15.13;8.95;;;12.00;99.90;;;;;;4979752;28;20026;-69
2022/08/17 13:18:07;;;;;;;17.10;9.77;;;12.00;99.90;;;;;;4977091;28;20022;-69
2022/08/17 13:20:36;;;;;;;15.55;8.50;;;12.00;99.90;;;;;;4974968;28;20034;-69
2022/08/17 13:23:09;;;;;;;14.43;8.77;;;12.00;99.90;;;;;;4976229;28;20180;-70
2022/08/17 13:25:36;;;;;;;16.33;8.57;;;11.90;99.90;;;;;;4977261;28;20027;-71
2022/08/17 13:28:04;;;;;;;16.13;8.65;;;11.90;99.90;;;;;;4979137;28;20904;-70
2022/08/17 13:30:32;;;;;;;15.95;8.68;;;11.90;99.90;;;;;;4979659;28;20030;-72
2022/08/17 13:33:01;;;;;;;13.75;9.77;;;11.90;99.90;;;;;;4978677;28;20506;-70
2022/08/17 13:36:04;;;;;;;14.93;9.07;;;11.90;99.90;;;;;;4979883;28;20387;-69
2022/08/17 13:38:48;;;;;;;;;;;11.90;99.90;;;;;;4980592;28;20026;-69
2022/08/17 13:41:33;;;;;;;13.82;8.70;;;11.80;99.90;;;;;;4980628;28;20318;-68
2022/08/17 13:44:03;;;;;;;13.88;8.57;;;11.80;99.90;;;;;;4977979;28;20027;-69
2022/08/17 13:46:32;;;;;;;19.17;9.85;;;11.70;99.90;;;;;;4979938;28;20026;-68
2022/08/17 13:49:03;;;;;;;13.98;9.82;;;11.60;99.90;;;;;;4977073;28;20118;-69
2022/08/17 13:51:41;;;;;;;20.55;9.05;;;11.60;99.90;;;;;;4980011;28;20037;-69
2022/08/17 13:54:27;;;;;;;13.52;8.30;;;11.70;99.90;;;;;;4979473;28;20483;-70
2022/08/17 13:56:56;;;;;;;15.13;7.72;;;11.60;99.90;;;;;;4976890;28;20357;-71